Time;durP1;ratioP1;P1;durP2;ratioP2;P2;SDS_P1;SDS_P2;PMS_P1;PMS_P2;Temp;Humidity;BMP_temperature;BMP_pressure;BME280_temperature;BME280_humidity;BME280_pressure;Samples;Min_cycle;Max_cycle;Signal;HPM_P1;HPM_P2
2022/10/05 00:00:54;;;;;;;0.10;0.10;;;;;;;14.03;99.59;101709.88;5035244;28;20108;-70
2022/10/05 00:03:21;;;;;;;0.00;0.00;;;;;;;13.99;100.00;101713.78;5029883;28;20033;-69
2022/10/05 00:05:47;;;;;;;0.00;0.00;;;;;;;14.01;100.00;101723.47;5031760;28;20024;-68
2022/10/05 00:08:22;;;;;;;0.10;0.10;;;;;;;13.99;100.00;101717.34;5034672;28;20028;-69
2022/10/05 00:10:47;;;;;;;0.03;0.03;;;;;;;14.00;100.00;101718.22;5029562;28;20038;-69
2022/10/05 00:13:33;;;;;;;0.00;0.00;;;;;;;13.90;100.00;101715.38;5033849;28;20034;-69
2022/10/05 00:16:10;;;;;;;0.03;0.03;;;;;;;13.85;100.00;101709.47;5035955;28;20478;-68
2022/10/05 00:18:36;;;;;;;0.00;0.00;;;;;;;13.85;100.00;101714.88;5034065;28;20025;-69
2022/10/05 00:21:01;;;;;;;0.00;0.00;;;;;;;13.93;100.00;101699.78;5036243;28;20033;-70
2022/10/05 00:23:31;;;;;;;0.10;0.10;;;;;;;13.90;100.00;101686.53;5025007;28;20037;-70
2022/10/05 00:26:05;;;;;;;0.10;0.10;;;;;;;13.85;100.00;101687.88;5020552;28;20029;-69
2022/10/05 00:28:30;;;;;;;0.10;0.10;;;;;;;13.84;100.00;101689.69;5043951;28;20213;-71
2022/10/05 00:30:59;;;;;;;0.10;0.10;;;;;;;13.89;100.00;101687.50;5040892;28;20029;-68
2022/10/05 00:33:25;;;;;;;0.10;0.10;;;;;;;13.96;100.00;101687.88;5035004;28;20060;-70
2022/10/05 00:35:50;;;;;;;0.08;0.08;;;;;;;13.61;100.00;101646.50;5036755;28;20471;-70
2022/10/05 00:38:16;;;;;;;0.00;0.00;;;;;;;13.84;100.00;101654.59;5021247;28;20040;-72
2022/10/05 00:41:08;;;;;;;0.00;0.00;;;;;;;13.97;100.00;101683.34;5039477;28;20421;-71
2022/10/05 00:44:01;;;;;;;0.10;0.10;;;;;;;13.81;100.00;101681.84;5019806;28;20407;-72
2022/10/05 00:46:38;;;;;;;0.00;0.00;;;;;;;13.87;100.00;101675.13;5037597;28;20060;-68
2022/10/05 00:49:53;;;;;;;0.10;0.10;;;;;;;13.77;100.00;101686.63;5029844;28;20502;-70
2022/10/05 00:52:31;;;;;;;0.10;0.10;;;;;;;13.76;100.00;101687.59;5026322;28;20148;-68
2022/10/05 00:55:05;;;;;;;0.10;0.10;;;;;;;13.73;100.00;101693.25;5030598;28;20037;-69
2022/10/05 00:57:49;;;;;;;0.05;0.05;;;;;;;13.70;100.00;101690.78;5035678;28;20035;-70
2022/10/05 01:00:19;;;;;;;0.10;0.10;;;;;;;13.73;100.00;101687.00;5039302;28;20028;-69
2022/10/05 01:02:59;;;;;;;0.08;0.08;;;;;;;13.75;100.00;101675.09;5031843;28;20064;-71
2022/10/05 01:05:45;;;;;;;0.00;0.00;;;;;;;13.66;100.00;101681.19;5037117;28;20484;-69
2022/10/05 01:08:32;;;;;;;0.10;0.10;;;;;;;13.77;100.00;101677.69;5036290;28;20036;-70
2022/10/05 01:11:21;;;;;;;0.10;0.10;;;;;;;13.65;100.00;101680.34;5036515;28;20031;-68
2022/10/05 01:14:04;;;;;;;0.00;0.00;;;;;;;13.51;100.00;101631.97;5031277;28;20033;-72
2022/10/05 01:16:40;;;;;;;0.10;0.10;;;;;;;13.75;100.00;101647.25;5032784;28;20044;-69
2022/10/05 01:19:27;;;;;;;0.00;0.00;;;;;;;13.46;100.00;101618.88;5038651;28;20075;-70
2022/10/05 01:22:15;;;;;;;0.10;0.10;;;;;;;13.56;100.00;101642.44;5038221;28;20068;-70
2022/10/05 01:25:13;;;;;;;0.10;0.10;;;;;;;13.70;100.00;101665.66;5036613;28;20134;-70
2022/10/05 01:27:55;;;;;;;0.10;0.10;;;;;;;13.65;100.00;101655.19;5033601;28;20095;-71
2022/10/05 01:30:21;;;;;;;0.10;0.10;;;;;;;13.66;100.00;101648.81;5038710;28;20037;-72
2022/10/05 01:33:04;;;;;;;0.10;0.10;;;;;;;13.71;100.00;101646.63;5037181;28;20029;-70
2022/10/05 01:35:41;;;;;;;0.10;0.10;;;;;;;13.64;100.00;101650.78;5037950;28;20041;-72
2022/10/05 01:38:13;;;;;;;0.10;0.10;;;;;;;13.59;100.00;101643.03;5036963;28;20083;-69
2022/10/05 01:40:57;;;;;;;0.00;0.00;;;;;;;13.50;100.00;101641.94;5041027;28;20032;-71
2022/10/05 01:43:37;;;;;;;0.08;0.08;;;;;;;13.42;100.00;101644.34;5026702;28;20029;-69
2022/10/05 01:46:13;;;;;;;0.10;0.10;;;;;;;13.47;100.00;101646.72;5045687;28;20033;-70
2022/10/05 01:49:03;;;;;;;0.10;0.10;;;;;;;13.57;100.00;101646.84;5026516;28;20059;-69
2022/10/05 01:51:39;;;;;;;0.10;0.10;;;;;;;13.41;100.00;101639.94;5030524;28;20067;-69
2022/10/05 01:54:33;;;;;;;0.10;0.10;;;;;;;13.41;100.00;101639.94;5035870;28;20033;-69
2022/10/05 01:57:24;;;;;;;0.10;0.10;;;;;;;13.23;100.00;101608.97;5055885;28;20021;-68
2022/10/05 02:00:02;;;;;;;0.10;0.10;;;;;;;13.46;100.00;101635.03;5041419;28;20029;-68
2022/10/05 02:02:28;;;;;;;0.10;0.10;;;;;;;13.51;100.00;101621.19;5036426;28;20386;-70
2022/10/05 02:04:57;;;;;;;0.10;0.10;;;;;;;13.50;100.00;101614.94;5035467;28;20095;-69
2022/10/05 02:07:27;;;;;;;0.10;0.10;;;;;;;13.64;100.00;101610.28;5021468;28;20112;-70
2022/10/05 02:09:57;;;;;;;0.10;0.10;;;;;;;13.46;100.00;101591.03;5036200;28;20478;-71
2022/10/05 02:12:26;;;;;;;0.05;0.05;;;;;;;13.33;100.00;101573.06;5037466;28;20050;-71
2022/10/05 02:14:54;;;;;;;0.00;0.00;;;;;;;13.45;100.00;101614.44;5034331;28;20082;-69
2022/10/05 02:17:24;;;;;;;0.00;0.00;;;;;;;13.14;100.00;101557.47;5035340;28;20060;-71
2022/10/05 02:19:51;;;;;;;0.05;0.05;;;;;;;13.39;100.00;101597.84;5035975;28;20028;-70
2022/10/05 02:22:21;;;;;;;0.05;0.05;;;;;;;13.46;100.00;101599.13;5037500;28;20469;-68
2022/10/05 02:24:50;;;;;;;0.10;0.10;;;;;;;13.17;100.00;101568.00;5034325;28;20479;-69
2022/10/05 02:27:39;;;;;;;0.10;0.10;;;;;;;13.40;100.00;101589.63;5035098;28;20025;-70
2022/10/05 02:30:06;;;;;;;0.10;0.10;;;;;;;13.54;100.00;101593.13;5037504;28;20041;-68
2022/10/05 02:32:48;;;;;;;0.10;0.10;;;;;;;13.41;100.00;101586.00;5033187;28;20025;-70
2022/10/05 02:35:16;;;;;;;0.10;0.10;;;;;;;13.49;100.00;101583.56;5033877;28;20037;-71
2022/10/05 02:37:56;;;;;;;0.00;0.00;;;;;;;13.49;100.00;101585.41;5035935;28;20056;-71
2022/10/05 02:40:28;;;;;;;0.10;0.10;;;;;;;13.40;100.00;101580.69;5039772;28;20448;-71
2022/10/05 02:43:01;;;;;;;0.00;0.00;;;;;;;13.43;100.00;101580.50;5035619;28;20036;-68
2022/10/05 02:45:39;;;;;;;0.08;0.08;;;;;;;13.50;100.00;101576.34;5052329;28;20026;-70
2022/10/05 02:48:32;;;;;;;0.10;0.10;;;;;;;13.44;100.00;101571.41;5037306;28;20037;-68
2022/10/05 02:51:07;;;;;;;0.03;0.03;;;;;;;13.47;100.00;101566.63;5056261;28;20036;-70
2022/10/05 02:53:40;;;;;;;0.00;0.00;;;;;;;13.34;100.00;101560.47;5040104;28;20021;-70
2022/10/05 02:56:41;;;;;;;0.00;0.00;;;;;;;13.47;100.00;101550.44;5030346;28;20036;-71
2022/10/05 02:59:14;;;;;;;0.20;0.10;;;;;;;13.47;100.00;101552.31;5035182;28;20120;-69
2022/10/05 03:01:45;;;;;;;0.00;0.00;;;;;;;13.53;100.00;101540.16;5035708;28;20056;-72
2022/10/05 03:04:28;;;;;;;0.10;0.10;;;;;;;13.53;100.00;101535.59;5035986;28;20040;-72
2022/10/05 03:07:08;;;;;;;0.10;0.10;;;;;;;13.41;100.00;101537.44;5031584;28;20029;-70
2022/10/05 03:09:51;;;;;;;0.00;0.00;;;;;;;13.46;100.00;101535.25;5032361;28;20336;-70
2022/10/05 03:12:40;;;;;;;0.10;0.10;;;;;;;13.28;100.00;101526.72;5036404;28;20025;-73
2022/10/05 03:15:19;;;;;;;0.10;0.10;;;;;;;13.31;100.00;101537.28;5038599;28;20025;-71
2022/10/05 03:17:57;;;;;;;0.10;0.10;;;;;;;13.26;100.00;101538.63;5030881;28;20383;-71
2022/10/05 03:20:55;;;;;;;0.00;0.00;;;;;;;13.37;100.00;101529.69;5016864;28;20043;-71
2022/10/05 03:23:41;;;;;;;0.10;0.10;;;;;;;13.44;100.00;101539.91;5041236;28;20029;-69
2022/10/05 03:26:27;;;;;;;0.10;0.10;;;;;;;13.45;100.00;101544.31;5037911;28;20491;-71
2022/10/05 03:28:56;;;;;;;0.10;0.10;;;;;;;13.53;100.00;101548.25;5039206;28;20079;-70
2022/10/05 03:31:44;;;;;;;0.00;0.00;;;;;;;13.38;100.00;101552.97;5033596;28;20024;-69
2022/10/05 03:34:15;;;;;;;0.10;0.10;;;;;;;13.38;100.00;101532.25;5021427;28;20036;-71
2022/10/05 03:36:53;;;;;;;0.00;0.00;;;;;;;13.27;100.00;101543.03;5033188;28;20067;-70
2022/10/05 03:39:41;;;;;;;0.10;0.10;;;;;;;13.37;100.00;101553.97;5037715;28;20032;-70
2022/10/05 03:42:40;;;;;;;0.10;0.10;;;;;;;13.39;100.00;101543.91;5052238;28;21493;-71
2022/10/05 03:45:18;;;;;;;0.10;0.10;;;;;;;13.22;100.00;101516.44;5038763;28;20074;-68
2022/10/05 03:48:04;;;;;;;0.10;0.10;;;;;;;13.45;100.00;101546.16;5043189;28;20091;-68
2022/10/05 03:50:39;;;;;;;0.10;0.10;;;;;;;13.45;100.00;101554.25;5038223;28;20028;-69
2022/10/05 03:53:14;;;;;;;0.00;0.00;;;;;;;13.44;100.00;101547.97;5027361;28;20119;-68
2022/10/05 03:55:46;;;;;;;0.00;0.00;;;;;;;13.47;100.00;101530.72;5041106;28;20441;-70
2022/10/05 03:58:18;;;;;;;0.03;0.03;;;;;;;13.39;100.00;101546.59;5035367;28;20041;-69
2022/10/05 04:00:45;;;;;;;0.10;0.10;;;;;;;13.34;100.00;101538.88;5037530;28;20483;-68
2022/10/05 04:03:30;;;;;;;0.10;0.10;;;;;;;13.37;100.00;101537.78;5020551;28;20034;-72
2022/10/05 04:06:03;;;;;;;0.10;0.10;;;;;;;13.40;100.00;101526.75;5033660;28;20546;-70
2022/10/05 04:08:42;;;;;;;0.10;0.10;;;;;;;13.41;100.00;101536.59;5038831;28;20504;-69
2022/10/05 04:11:12;;;;;;;0.00;0.00;;;;;;;13.41;100.00;101539.28;5038546;28;20136;-70
2022/10/05 04:13:45;;;;;;;0.10;0.10;;;;;;;13.36;100.00;101539.63;5033307;28;20143;-68
2022/10/05 04:16:46;;;;;;;0.10;0.10;;;;;;;13.45;100.00;101536.22;5036939;28;20025;-68
2022/10/05 04:19:18;;;;;;;0.00;0.00;;;;;;;13.42;100.00;101530.22;5036306;28;20084;-71
2022/10/05 04:21:55;;;;;;;0.10;0.10;;;;;;;13.28;100.00;101533.97;5033687;28;20087;-69
2022/10/05 04:24:44;;;;;;;0.08;0.08;;;;;;;13.23;100.00;101514.59;5031251;28;20331;-69
2022/10/05 04:27:16;;;;;;;0.00;0.00;;;;;;;13.57;100.00;101531.69;5032403;28;20025;-71
2022/10/05 04:29:52;;;;;;;0.10;0.10;;;;;;;13.26;100.00;101500.88;5031850;28;20028;-70
2022/10/05 04:32:30;;;;;;;0.10;0.10;;;;;;;13.26;100.00;101528.69;5016551;28;20496;-68
2022/10/05 04:35:13;;;;;;;0.10;0.10;;;;;;;13.31;100.00;101534.56;5035710;28;20375;-70
2022/10/05 04:38:12;;;;;;;0.10;0.10;;;;;;;13.35;100.00;101529.81;5034315;28;20040;-69
2022/10/05 04:41:06;;;;;;;0.03;0.03;;;;;;;13.28;100.00;101529.41;5035458;28;20609;-69
2022/10/05 04:44:12;;;;;;;0.10;0.10;;;;;;;13.22;100.00;101526.34;5037978;28;20179;-71
2022/10/05 04:47:00;;;;;;;0.10;0.10;;;;;;;13.01;100.00;101498.25;5014974;28;20049;-68
2022/10/05 04:50:05;;;;;;;0.10;0.10;;;;;;;13.23;100.00;101512.75;5037240;28;20418;-70
2022/10/05 04:52:57;;;;;;;0.10;0.10;;;;;;;13.12;100.00;101524.38;5037616;28;20135;-70
2022/10/05 04:55:34;;;;;;;0.10;0.10;;;;;;;13.13;100.00;101517.16;5033518;28;20033;-69
2022/10/05 04:58:09;;;;;;;0.00;0.00;;;;;;;13.04;100.00;101532.22;5046070;28;20475;-68
2022/10/05 05:00:45;;;;;;;0.10;0.10;;;;;;;12.89;100.00;101508.13;5040569;28;20108;-67
2022/10/05 05:03:31;;;;;;;0.10;0.10;;;;;;;12.98;100.00;101520.03;5036514;28;20491;-70
2022/10/05 05:06:22;;;;;;;0.08;0.08;;;;;;;13.25;100.00;101507.25;5037330;28;20033;-70
2022/10/05 05:09:23;;;;;;;0.00;0.00;;;;;;;13.03;100.00;101509.75;5035309;28;20045;-70
2022/10/05 05:11:57;;;;;;;0.10;0.10;;;;;;;13.09;100.00;101511.16;5022279;28;20038;-70
2022/10/05 05:14:56;;;;;;;0.10;0.10;;;;;;;12.88;100.00;101489.41;5037725;28;20025;-70
2022/10/05 05:18:02;;;;;;;0.10;0.10;;;;;;;13.22;100.00;101508.34;5034683;28;20025;-70
2022/10/05 05:20:52;;;;;;;0.10;0.10;;;;;;;13.11;100.00;101514.56;5043010;28;20029;-69
2022/10/05 05:23:36;;;;;;;0.00;0.00;;;;;;;13.09;100.00;101504.88;5035452;28;20030;-70
2022/10/05 05:26:27;;;;;;;0.10;0.10;;;;;;;13.16;100.00;101503.44;5029523;28;20447;-71
2022/10/05 05:29:01;;;;;;;0.10;0.10;;;;;;;13.05;100.00;101486.25;5040331;28;20071;-71
2022/10/05 05:31:39;;;;;;;0.03;0.03;;;;;;;13.19;100.00;101506.72;5028857;28;20395;-72
2022/10/05 05:34:35;;;;;;;0.10;0.10;;;;;;;13.14;100.00;101503.53;5047177;28;20029;-68
2022/10/05 05:37:15;;;;;;;0.00;0.00;;;;;;;13.07;100.00;101459.19;5039763;28;20090;-70
2022/10/05 05:40:21;;;;;;;0.10;0.10;;;;;;;13.27;100.00;101506.13;5039421;28;20060;-71
2022/10/05 05:43:08;;;;;;;0.10;0.10;;;;;;;13.24;100.00;101501.00;5039228;28;20045;-69
2022/10/05 05:45:41;;;;;;;0.10;0.10;;;;;;;13.27;100.00;101502.59;5020621;28;20047;-71
2022/10/05 05:48:17;;;;;;;0.00;0.00;;;;;;;13.31;100.00;101504.91;5017925;28;20020;-73
2022/10/05 05:50:57;;;;;;;0.10;0.10;;;;;;;13.18;100.00;101472.66;5030624;28;20463;-71
2022/10/05 05:53:25;;;;;;;0.00;0.00;;;;;;;13.30;100.00;101492.41;5018291;28;20016;-72
2022/10/05 05:55:54;;;;;;;0.00;0.00;;;;;;;13.16;100.00;101487.25;5034541;28;20126;-73
2022/10/05 05:58:23;;;;;;;0.00;0.00;;;;;;;13.22;100.00;101494.88;5035734;28;20037;-70
2022/10/05 06:01:27;;;;;;;0.10;0.10;;;;;;;13.19;100.00;101495.94;5032256;28;20135;-69
2022/10/05 06:03:55;;;;;;;0.10;0.10;;;;;;;13.15;100.00;101502.56;5035754;28;20058;-71
2022/10/05 06:06:24;;;;;;;0.10;0.10;;;;;;;13.17;100.00;101497.91;5042961;28;20051;-71
2022/10/05 06:09:03;;;;;;;0.00;0.00;;;;;;;13.08;100.00;101495.94;5038085;28;20111;-73
2022/10/05 06:11:36;;;;;;;0.10;0.10;;;;;;;13.01;100.00;101492.84;5029953;28;20057;-71
2022/10/05 06:14:14;;;;;;;0.10;0.10;;;;;;;12.97;100.00;101486.00;5032119;28;20116;-72
2022/10/05 06:16:45;;;;;;;0.08;0.08;;;;;;;13.01;100.00;101482.06;5039386;28;20029;-68
2022/10/05 06:19:16;;;;;;;0.00;0.00;;;;;;;13.19;100.00;101495.94;5032950;28;20513;-71
2022/10/05 06:21:45;;;;;;;0.10;0.10;;;;;;;13.08;100.00;101495.06;5031259;28;20471;-72
2022/10/05 06:24:28;;;;;;;0.10;0.10;;;;;;;13.13;100.00;101498.28;5033154;28;20040;-72
2022/10/05 06:27:07;;;;;;;0.10;0.10;;;;;;;13.21;100.00;101495.84;5015678;28;20056;-72
2022/10/05 06:29:51;;;;;;;0.00;0.00;;;;;;;13.18;100.00;101496.94;5034403;28;20036;-73
2022/10/05 06:32:54;;;;;;;0.00;0.00;;;;;;;13.33;100.00;101499.41;5030802;28;20158;-68
2022/10/05 06:35:37;;;;;;;0.00;0.00;;;;;;;13.16;100.00;101498.03;5029426;28;20035;-71
2022/10/05 06:38:13;;;;;;;0.00;0.00;;;;;;;13.23;100.00;101498.41;5041680;28;20392;-73
2022/10/05 06:40:49;;;;;;;0.00;0.00;;;;;;;13.12;100.00;101480.38;5034865;28;20055;-72
2022/10/05 06:43:24;;;;;;;0.00;0.00;;;;;;;13.16;100.00;101503.44;5034639;28;20028;-70
2022/10/05 06:46:15;;;;;;;0.10;0.10;;;;;;;13.09;100.00;101480.63;5016262;28;20029;-72
2022/10/05 06:49:16;;;;;;;0.10;0.10;;;;;;;13.33;100.00;101510.19;5031723;28;20108;-73
2022/10/05 06:52:09;;;;;;;0.10;0.10;;;;;;;13.30;100.00;101503.19;5030617;28;20068;-68
2022/10/05 06:54:45;;;;;;;0.00;0.00;;;;;;;13.40;100.00;101486.28;5030631;28;20021;-71
2022/10/05 06:57:31;;;;;;;0.08;0.08;;;;;;;13.45;100.00;101495.75;5030576;28;20040;-70
2022/10/05 07:00:10;;;;;;;0.10;0.10;;;;;;;13.25;100.00;101474.88;5025167;28;20131;-69
2022/10/05 07:03:02;;;;;;;0.00;0.00;;;;;;;13.48;100.00;101492.81;5031093;28;20056;-70
2022/10/05 07:05:28;;;;;;;0.10;0.10;;;;;;;13.46;100.00;101494.78;5038330;28;20029;-72
2022/10/05 07:08:00;;;;;;;0.10;0.10;;;;;;;13.49;100.00;101494.53;5041284;28;20029;-69
2022/10/05 07:11:01;;;;;;;0.10;0.10;;;;;;;13.52;100.00;101493.41;5033516;28;20033;-68
2022/10/05 07:13:44;;;;;;;0.00;0.00;;;;;;;13.61;100.00;101500.78;5034453;28;20029;-68
2022/10/05 07:16:44;;;;;;;0.10;0.10;;;;;;;13.56;100.00;101485.97;5041609;28;20116;-68
2022/10/05 07:19:40;;;;;;;0.00;0.00;;;;;;;13.85;100.00;101504.34;5040849;28;20040;-70
2022/10/05 07:22:18;;;;;;;0.00;0.00;;;;;;;13.78;100.00;101510.22;5056511;28;20841;-70
2022/10/05 07:25:10;;;;;;;0.00;0.00;;;;;;;13.91;100.00;101511.91;5039341;28;20044;-70
2022/10/05 07:27:43;;;;;;;0.05;0.05;;;;;;;13.88;100.00;101496.00;5037060;28;20029;-70
2022/10/05 07:30:13;;;;;;;0.05;0.05;;;;;;;13.77;100.00;101491.47;5019740;28;20051;-67
2022/10/05 07:32:49;;;;;;;0.00;0.00;;;;;;;13.94;99.82;101508.97;5033843;28;20206;-68
2022/10/05 07:37:53;;;;;;;0.00;0.00;;;;;;;13.71;99.17;101467.66;5037327;28;20033;-69
2022/10/05 07:38:36;;;;;;;0.00;0.00;;;;;;;14.18;97.66;101519.59;5036335;28;20444;-68
2022/10/05 07:41:01;;;;;;;0.10;0.10;;;;;;;14.38;97.10;101517.97;5040295;28;20462;-71
2022/10/05 07:43:36;;;;;;;0.00;0.00;;;;;;;14.23;97.49;101498.47;5037051;28;20036;-70
2022/10/05 07:46:20;;;;;;;0.00;0.00;;;;;;;14.40;96.28;101513.28;5041235;28;20278;-70
2022/10/05 07:49:07;;;;;;;0.00;0.00;;;;;;;14.51;96.03;101516.91;5036419;28;20025;-69
2022/10/05 07:51:44;;;;;;;0.10;0.10;;;;;;;14.42;96.50;101488.00;5040414;28;20025;-69
2022/10/05 07:54:21;;;;;;;0.10;0.10;;;;;;;14.69;95.84;101507.31;5044055;28;20029;-69
2022/10/05 07:56:59;;;;;;;0.10;0.10;;;;;;;14.61;94.89;101503.47;5045035;28;20500;-70
2022/10/05 07:59:49;;;;;;;0.00;0.00;;;;;;;14.35;95.05;101480.38;5038795;28;20526;-71
2022/10/05 08:02:32;;;;;;;0.00;0.00;;;;;;;14.75;95.08;101514.03;5035155;28;20509;-68
2022/10/05 08:05:02;;;;;;;0.00;0.00;;;;;;;14.62;94.78;101494.38;5042581;28;20052;-74
2022/10/05 08:07:31;;;;;;;0.10;0.10;;;;;;;14.59;95.89;101510.84;5035873;28;20033;-70
2022/10/05 08:10:04;;;;;;;0.00;0.00;;;;;;;14.66;95.71;101515.63;5021285;28;20119;-68
2022/10/05 08:12:47;;;;;;;0.00;0.00;;;;;;;14.64;96.18;101505.94;5037341;28;20029;-73
2022/10/05 08:15:20;;;;;;;0.05;0.05;;;;;;;14.46;96.30;101481.31;5036547;28;20033;-69
2022/10/05 08:17:54;;;;;;;0.10;0.10;;;;;;;14.95;94.28;101497.94;5036762;28;20607;-69
2022/10/05 08:20:38;;;;;;;0.10;0.10;;;;;;;14.81;95.37;101500.00;5023211;28;20433;-70
2022/10/05 08:23:13;;;;;;;0.00;0.00;;;;;;;14.87;95.27;101498.59;5038729;28;20025;-68
2022/10/05 08:25:56;;;;;;;0.10;0.10;;;;;;;14.90;94.88;101498.34;5037843;28;20208;-69
2022/10/05 08:28:27;;;;;;;0.00;0.00;;;;;;;15.05;94.85;101490.75;5031700;28;20037;-72
2022/10/05 08:31:00;;;;;;;0.00;0.00;;;;;;;15.03;93.98;101471.09;5028693;28;20331;-74
2022/10/05 08:33:31;;;;;;;0.00;0.00;;;;;;;15.06;94.63;101461.84;5034738;28;20021;-69
2022/10/05 08:36:05;;;;;;;0.00;0.00;;;;;;;15.13;94.26;101476.56;5023763;28;20390;-69
2022/10/05 08:38:32;;;;;;;0.00;0.00;;;;;;;15.17;95.41;101464.50;5040735;28;20101;-69
2022/10/05 08:41:16;;;;;;;0.00;0.00;;;;;;;15.26;94.36;101485.31;5043089;28;20036;-72
2022/10/05 08:44:01;;;;;;;0.00;0.00;;;;;;;15.16;93.57;101454.66;5039043;28;20343;-69
2022/10/05 08:46:26;;;;;;;0.00;0.00;;;;;;;15.35;93.08;101482.78;5039951;28;20036;-70
2022/10/05 08:49:27;;;;;;;0.10;0.10;;;;;;;15.27;94.54;101478.06;5042360;28;20036;-70
2022/10/05 08:52:11;;;;;;;0.00;0.00;;;;;;;15.39;93.48;101476.13;5037492;28;20045;-71
2022/10/05 08:55:14;;;;;;;0.10;0.10;;;;;;;15.51;92.84;101475.00;5024471;28;20021;-69
2022/10/05 08:57:45;;;;;;;0.00;0.00;;;;;;;15.54;92.44;101471.19;5040008;28;20029;-68
2022/10/05 09:00:23;;;;;;;0.00;0.00;;;;;;;15.58;91.97;101478.91;5032949;28;20509;-72
2022/10/05 09:03:18;;;;;;;0.00;0.00;;;;;;;15.66;92.32;101475.50;5036893;28;20111;-68
2022/10/05 09:05:53;;;;;;;0.10;0.10;;;;;;;15.89;91.56;101468.03;5041486;28;20329;-70
2022/10/05 09:08:40;;;;;;;0.00;0.00;;;;;;;15.88;89.66;101474.47;5037764;28;20063;-72
2022/10/05 09:11:34;;;;;;;0.10;0.10;;;;;;;15.54;90.58;101449.53;5040792;28;20029;-70
2022/10/05 09:14:27;;;;;;;0.00;0.00;;;;;;;15.75;90.24;101460.31;5037174;28;20111;-72
2022/10/05 09:17:37;;;;;;;0.00;0.00;;;;;;;15.78;91.13;101469.97;5036889;28;20045;-70
2022/10/05 09:20:15;;;;;;;0.00;0.00;;;;;;;15.94;90.88;101462.19;5025161;28;20029;-72
2022/10/05 09:23:11;;;;;;;0.00;0.00;;;;;;;16.12;90.46;101459.66;5038190;28;20077;-68
2022/10/05 09:25:56;;;;;;;0.00;0.00;;;;;;;16.26;89.66;101460.28;5039163;28;20142;-69
2022/10/05 09:28:31;;;;;;;0.03;0.03;;;;;;;16.19;89.19;101460.81;5024621;28;20031;-69
2022/10/05 09:31:02;;;;;;;0.00;0.00;;;;;;;16.35;90.58;101462.09;5034560;28;20029;-70
2022/10/05 09:33:39;;;;;;;0.00;0.00;;;;;;;16.25;88.40;101461.25;5038926;28;20074;-71
2022/10/05 09:36:08;;;;;;;0.00;0.00;;;;;;;16.34;89.94;101454.97;5036464;28;20290;-70
2022/10/05 09:39:01;;;;;;;0.10;0.05;;;;;;;16.41;88.77;101456.13;5040102;28;20029;-70
2022/10/05 09:41:35;;;;;;;0.00;0.00;;;;;;;16.46;87.70;101450.25;5036358;28;20044;-68
2022/10/05 09:44:39;;;;;;;0.00;0.00;;;;;;;16.34;87.07;101461.25;5041268;28;20028;-69
2022/10/05 09:47:21;;;;;;;0.00;0.00;;;;;;;16.33;87.57;101453.25;5032953;28;20056;-70
2022/10/05 09:50:03;;;;;;;0.40;0.10;;;;;;;16.45;87.91;101444.00;5033875;28;20052;-71
2022/10/05 09:52:52;;;;;;;0.00;0.00;;;;;;;16.41;87.29;101441.72;5041562;28;20035;-72
2022/10/05 09:55:40;;;;;;;0.00;0.00;;;;;;;16.61;87.13;101434.41;5049517;28;20024;-71
2022/10/05 09:58:53;;;;;;;0.00;0.00;;;;;;;16.57;86.43;101433.00;5038496;28;20056;-68
2022/10/05 10:01:31;;;;;;;0.00;0.00;;;;;;;16.82;87.19;101436.13;5031871;28;20076;-73
2022/10/05 10:03:56;;;;;;;0.00;0.00;;;;;;;16.63;85.88;101433.28;5039063;28;20033;-69
2022/10/05 10:06:41;;;;;;;0.00;0.00;;;;;;;16.67;85.80;101439.25;5035242;28;20356;-71
2022/10/05 10:09:25;;;;;;;0.00;0.00;;;;;;;16.67;85.63;101419.44;5028344;28;20210;-71
2022/10/05 10:12:02;;;;;;;0.00;0.00;;;;;;;16.78;84.47;101414.72;5031002;28;20055;-68
2022/10/05 10:14:38;;;;;;;0.00;0.00;;;;;;;16.88;85.54;101425.53;5028506;28;20040;-71
2022/10/05 10:17:27;;;;;;;0.00;0.00;;;;;;;17.07;85.36;101423.78;5031548;28;20068;-71
2022/10/05 10:20:14;;;;;;;0.00;0.00;;;;;;;17.01;83.77;101402.66;5031062;28;20135;-67
2022/10/05 10:23:17;;;;;;;0.00;0.00;;;;;;;17.13;84.85;101397.91;5029830;28;20036;-74
2022/10/05 10:26:10;;;;;;;0.00;0.00;;;;;;;17.05;85.45;101406.78;5036252;28;20562;-69
2022/10/05 10:28:45;;;;;;;0.00;0.00;;;;;;;17.22;84.87;101402.44;5028119;28;20029;-68
2022/10/05 10:31:25;;;;;;;0.00;0.00;;;;;;;17.26;84.19;101408.41;5038987;28;20033;-75
2022/10/05 10:34:02;;;;;;;0.00;0.00;;;;;;;17.22;85.40;101378.03;5038763;28;20029;-71
2022/10/05 10:36:46;;;;;;;0.10;0.10;;;;;;;17.39;85.27;101393.50;5015654;28;20474;-71
2022/10/05 10:39:36;;;;;;;0.00;0.00;;;;;;;17.46;83.03;101406.47;5033146;28;20430;-72
2022/10/05 10:42:37;;;;;;;0.00;0.00;;;;;;;17.76;84.15;101380.84;5028635;28;20529;-70
2022/10/05 10:45:18;;;;;;;0.05;0.05;;;;;;;18.16;83.40;101375.97;5029296;28;20436;-73
2022/10/05 10:48:04;;;;;;;0.00;0.00;;;;;;;17.90;80.82;101378.63;5027667;28;20025;-72
2022/10/05 10:51:09;;;;;;;0.08;0.08;;;;;;;18.08;79.65;101371.34;5021618;28;20028;-69
2022/10/05 10:54:05;;;;;;;0.10;0.10;;;;;;;17.88;81.63;101377.91;5032797;28;20821;-70
2022/10/05 10:56:58;;;;;;;0.00;0.00;;;;;;;18.09;78.61;101367.63;5034219;28;20103;-69
2022/10/05 10:59:40;;;;;;;0.00;0.00;;;;;;;17.61;81.07;101380.50;5047025;28;20028;-72
2022/10/05 11:02:23;;;;;;;0.00;0.00;;;;;;;17.68;80.63;101378.91;5030976;28;20032;-76
2022/10/05 11:05:12;;;;;;;0.10;0.10;;;;;;;17.72;82.66;101346.00;5030634;28;20128;-72
2022/10/05 11:08:01;;;;;;;0.00;0.00;;;;;;;17.92;82.36;101371.16;5035691;28;20062;-71
2022/10/05 11:10:48;;;;;;;0.00;0.00;;;;;;;17.88;79.72;101357.03;5030731;28;20075;-69
2022/10/05 11:13:45;;;;;;;0.03;0.03;;;;;;;17.89;81.25;101363.31;5034516;28;20465;-77
2022/10/05 11:16:52;;;;;;;0.00;0.00;;;;;;;17.92;79.52;101373.88;5030692;28;20033;-72
2022/10/05 11:19:50;;;;;;;0.00;0.00;;;;;;;18.23;81.41;101358.06;5022297;28;20040;-75
2022/10/05 11:22:34;;;;;;;0.10;0.10;;;;;;;18.07;77.73;101347.06;5030017;28;20064;-75
2022/10/05 11:25:30;;;;;;;0.10;0.10;;;;;;;18.51;78.27;101347.03;5031845;28;20028;-68
2022/10/05 11:28:18;;;;;;;0.00;0.00;;;;;;;18.05;78.66;101346.34;5027783;28;20490;-71
2022/10/05 11:31:00;;;;;;;0.00;0.00;;;;;;;17.90;78.53;101335.16;5043424;28;20029;-74
2022/10/05 11:33:52;;;;;;;0.10;0.10;;;;;;;18.06;79.91;101348.06;5034770;28;20379;-70
2022/10/05 11:36:41;;;;;;;0.00;0.00;;;;;;;18.14;78.20;101332.69;5011605;28;20060;-69
2022/10/05 11:39:15;;;;;;;0.08;0.00;;;;;;;18.56;75.49;101352.84;5040192;28;20060;-69
2022/10/05 11:42:18;;;;;;;0.00;0.00;;;;;;;19.10;75.18;101329.19;5033467;28;20119;-68
2022/10/05 11:45:01;;;;;;;0.00;0.00;;;;;;;18.61;76.97;101332.50;5036066;28;20079;-70
2022/10/05 11:47:30;;;;;;;0.00;0.00;;;;;;;19.06;77.25;101323.22;5032987;28;20055;-72
2022/10/05 11:50:23;;;;;;;0.00;0.00;;;;;;;19.40;72.65;101324.19;5017319;28;20035;-69
2022/10/05 11:52:56;;;;;;;0.00;0.00;;;;;;;19.89;75.56;101312.56;5031758;28;20414;-70
2022/10/05 11:55:24;;;;;;;0.00;0.00;;;;;;;19.67;71.95;101309.44;5032823;28;20471;-73
2022/10/05 11:57:55;;;;;;;0.03;0.03;;;;;;;19.30;73.52;101302.56;5035558;28;20041;-71
2022/10/05 12:00:39;;;;;;;0.08;0.00;;;;;;;19.08;74.63;101301.28;4983086;28;20067;-74
2022/10/05 12:03:19;;;;;;;0.00;0.00;;;;;;;19.35;74.09;101311.06;5034235;28;20475;-69
2022/10/05 12:05:56;;;;;;;0.05;0.05;;;;;;;19.64;73.95;101294.28;5028095;28;20414;-72
2022/10/05 12:08:32;;;;;;;0.00;0.00;;;;;;;20.08;70.46;101286.84;5034416;28;20028;-69
2022/10/05 12:11:30;;;;;;;0.00;0.00;;;;;;;20.03;71.63;101286.50;5031279;28;20148;-72
2022/10/05 12:14:00;;;;;;;0.10;0.10;;;;;;;21.23;67.54;101279.31;5034952;28;20029;-70
2022/10/05 12:16:45;;;;;;;0.08;0.08;;;;;;;20.89;66.20;101270.44;5033079;28;20723;-74
2022/10/05 12:19:15;;;;;;;0.00;0.00;;;;;;;21.34;65.51;101253.47;5037155;28;20102;-70
2022/10/05 12:21:48;;;;;;;0.00;0.00;;;;;;;21.66;64.96;101246.13;5033193;28;20037;-71
2022/10/05 12:24:25;;;;;;;0.00;0.00;;;;;;;21.54;64.00;101262.91;5020095;28;20051;-68